sensor_id;sensor_type;location;lat;lon;timestamp;pressure;altitude;pressure_sealevel;temperature;humidity
29247;BME280;16272;48.188;9.964;2022-10-16T00:01:11;95765.41;;;14.36;77.65
29247;BME280;16272;48.188;9.964;2022-10-16T00:03:39;95761.56;;;14.07;78.47
29247;BME280;16272;48.188;9.964;2022-10-16T00:06:05;95767.47;;;14.26;77.62
29247;BME280;16272;48.188;9.964;2022-10-16T00:08:31;95768.47;;;13.85;79.24
29247;BME280;16272;48.188;9.964;2022-10-16T00:11:10;95766.63;;;13.94;79.13
29247;BME280;16272;48.188;9.964;2022-10-16T00:13:37;95768.47;;;13.85;79.61
29247;BME280;16272;48.188;9.964;2022-10-16T00:16:03;95770.44;;;14.31;76.73
29247;BME280;16272;48.188;9.964;2022-10-16T00:18:29;95765.53;;;14.43;75.59
29247;BME280;16272;48.188;9.964;2022-10-16T00:20:55;95773.00;;;14.47;75.34
29247;BME280;16272;48.188;9.964;2022-10-16T00:23:21;95769.38;;;13.69;79.00
29247;BME280;16272;48.188;9.964;2022-10-16T00:25:57;95771.09;;;14.33;76.75
29247;BME280;16272;48.188;9.964;2022-10-16T00:28:23;95767.25;;;14.59;75.24
29247;BME280;16272;48.188;9.964;2022-10-16T00:30:49;95768.13;;;13.88;78.26
29247;BME280;16272;48.188;9.964;2022-10-16T00:33:14;95780.63;;;14.59;74.88
29247;BME280;16272;48.188;9.964;2022-10-16T00:35:39;95773.91;;;14.40;75.35
29247;BME280;16272;48.188;9.964;2022-10-16T00:38:05;95780.34;;;14.53;74.99
29247;BME280;16272;48.188;9.964;2022-10-16T00:40:30;95770.94;;;14.66;74.91
29247;BME280;16272;48.188;9.964;2022-10-16T00:42:57;95777.53;;;14.47;75.09
29247;BME280;16272;48.188;9.964;2022-10-16T00:45:22;95761.63;;;13.91;77.76
29247;BME280;16272;48.188;9.964;2022-10-16T00:47:48;95760.97;;;13.81;78.47
29247;BME280;16272;48.188;9.964;2022-10-16T00:50:28;95745.22;;;14.02;78.03
29247;BME280;16272;48.188;9.964;2022-10-16T00:52:55;95753.13;;;14.27;77.70
29247;BME280;16272;48.188;9.964;2022-10-16T00:55:21;95766.66;;;14.80;74.36
29247;BME280;16272;48.188;9.964;2022-10-16T00:57:48;95759.75;;;14.85;73.72
29247;BME280;16272;48.188;9.964;2022-10-16T01:00:18;95753.94;;;14.82;74.73
29247;BME280;16272;48.188;9.964;2022-10-16T01:02:44;95757.50;;;14.74;73.31
29247;BME280;16272;48.188;9.964;2022-10-16T01:05:10;95746.63;;;14.44;75.39
29247;BME280;16272;48.188;9.964;2022-10-16T01:07:56;95754.41;;;14.85;73.37
29247;BME280;16272;48.188;9.964;2022-10-16T01:10:27;95753.97;;;14.50;75.05
29247;BME280;16272;48.188;9.964;2022-10-16T01:13:04;95757.94;;;14.63;74.00
29247;BME280;16272;48.188;9.964;2022-10-16T01:18:16;95770.38;;;14.39;75.68
29247;BME280;16272;48.188;9.964;2022-10-16T01:26:28;95761.72;;;14.37;74.75
29247;BME280;16272;48.188;9.964;2022-10-16T01:29:07;95759.34;;;14.42;74.85
29247;BME280;16272;48.188;9.964;2022-10-16T01:31:36;95765.41;;;14.91;72.43
29247;BME280;16272;48.188;9.964;2022-10-16T01:34:08;95761.06;;;14.89;72.40
29247;BME280;16272;48.188;9.964;2022-10-16T01:36:50;95764.78;;;14.26;75.61
29247;BME280;16272;48.188;9.964;2022-10-16T01:39:18;95763.53;;;14.13;77.27
29247;BME280;16272;48.188;9.964;2022-10-16T01:41:49;95764.38;;;14.68;74.62
29247;BME280;16272;48.188;9.964;2022-10-16T01:44:22;95767.25;;;14.59;74.51
29247;BME280;16272;48.188;9.964;2022-10-16T01:46:52;95764.84;;;14.72;74.45
29247;BME280;16272;48.188;9.964;2022-10-16T01:49:21;95753.41;;;14.86;73.49
29247;BME280;16272;48.188;9.964;2022-10-16T01:51:54;95747.16;;;14.94;73.16
29247;BME280;16272;48.188;9.964;2022-10-16T01:54:23;95756.75;;;15.27;71.56
29247;BME280;16272;48.188;9.964;2022-10-16T01:56:51;95762.66;;;14.99;72.47
29247;BME280;16272;48.188;9.964;2022-10-16T01:59:20;95763.16;;;15.17;71.85
29247;BME280;16272;48.188;9.964;2022-10-16T02:01:52;95769.13;;;15.04;72.91
29247;BME280;16272;48.188;9.964;2022-10-16T02:04:28;95764.19;;;15.31;71.11
29247;BME280;16272;48.188;9.964;2022-10-16T02:06:54;95766.88;;;15.31;71.68
29247;BME280;16272;48.188;9.964;2022-10-16T02:09:20;95763.72;;;15.28;71.94
29247;BME280;16272;48.188;9.964;2022-10-16T02:11:46;95765.53;;;14.97;73.07
29247;BME280;16272;48.188;9.964;2022-10-16T02:14:11;95763.50;;;14.76;73.72
29247;BME280;16272;48.188;9.964;2022-10-16T02:16:38;95766.94;;;14.30;75.49
29247;BME280;16272;48.188;9.964;2022-10-16T02:19:12;95769.84;;;14.75;74.92
29247;BME280;16272;48.188;9.964;2022-10-16T02:27:14;95772.78;;;15.27;72.22
29247;BME280;16272;48.188;9.964;2022-10-16T02:29:53;95776.56;;;15.32;72.62
29247;BME280;16272;48.188;9.964;2022-10-16T02:32:25;95781.72;;;14.49;75.70
29247;BME280;16272;48.188;9.964;2022-10-16T02:35:01;95783.81;;;14.85;75.17
29247;BME280;16272;48.188;9.964;2022-10-16T02:37:28;95789.47;;;14.91;73.85
29247;BME280;16272;48.188;9.964;2022-10-16T02:39:54;95790.00;;;15.09;74.30
29247;BME280;16272;48.188;9.964;2022-10-16T02:42:28;95792.50;;;14.64;75.66
29247;BME280;16272;48.188;9.964;2022-10-16T02:44:54;95776.38;;;14.41;76.88
29247;BME280;16272;48.188;9.964;2022-10-16T02:47:19;95777.44;;;15.10;73.21
29247;BME280;16272;48.188;9.964;2022-10-16T02:49:44;95780.59;;;14.67;74.87
29247;BME280;16272;48.188;9.964;2022-10-16T02:52:10;95790.53;;;15.04;73.55
29247;BME280;16272;48.188;9.964;2022-10-16T02:54:35;95797.91;;;14.79;74.81
29247;BME280;16272;48.188;9.964;2022-10-16T02:57:02;95795.41;;;15.01;74.41
29247;BME280;16272;48.188;9.964;2022-10-16T02:59:28;95787.44;;;15.16;71.84
29247;BME280;16272;48.188;9.964;2022-10-16T03:01:53;95791.47;;;14.88;73.47
29247;BME280;16272;48.188;9.964;2022-10-16T03:04:34;95798.06;;;15.01;75.16
29247;BME280;16272;48.188;9.964;2022-10-16T03:07:00;95796.88;;;14.80;75.15
29247;BME280;16272;48.188;9.964;2022-10-16T03:09:32;95793.44;;;14.95;74.32
29247;BME280;16272;48.188;9.964;2022-10-16T03:11:57;95794.56;;;14.77;75.89
29247;BME280;16272;48.188;9.964;2022-10-16T03:14:23;95801.41;;;15.41;71.48
29247;BME280;16272;48.188;9.964;2022-10-16T03:16:48;95799.97;;;15.15;73.65
29247;BME280;16272;48.188;9.964;2022-10-16T03:19:16;95804.44;;;14.77;74.59
29247;BME280;16272;48.188;9.964;2022-10-16T03:21:41;95801.22;;;13.79;78.60
29247;BME280;16272;48.188;9.964;2022-10-16T03:24:06;95796.47;;;13.41;81.01
29247;BME280;16272;48.188;9.964;2022-10-16T03:26:32;95777.41;;;14.40;77.09
29247;BME280;16272;48.188;9.964;2022-10-16T03:28:57;95781.94;;;14.00;77.80
29247;BME280;16272;48.188;9.964;2022-10-16T03:31:24;95786.47;;;14.31;77.48
29247;BME280;16272;48.188;9.964;2022-10-16T03:33:50;95779.44;;;14.38;75.59
29247;BME280;16272;48.188;9.964;2022-10-16T03:36:15;95776.38;;;14.49;75.05
29247;BME280;16272;48.188;9.964;2022-10-16T03:38:42;95769.13;;;14.27;76.39
29247;BME280;16272;48.188;9.964;2022-10-16T03:41:07;95772.84;;;14.18;76.80
29247;BME280;16272;48.188;9.964;2022-10-16T03:43:33;95769.63;;;13.91;77.55
29247;BME280;16272;48.188;9.964;2022-10-16T03:45:58;95774.13;;;14.30;76.38
29247;BME280;16272;48.188;9.964;2022-10-16T03:48:24;95776.34;;;14.18;76.72
29247;BME280;16272;48.188;9.964;2022-10-16T03:50:49;95777.84;;;14.52;75.28
29247;BME280;16272;48.188;9.964;2022-10-16T03:53:16;95791.63;;;15.10;72.46
29247;BME280;16272;48.188;9.964;2022-10-16T03:55:42;95787.97;;;14.65;73.75
29247;BME280;16272;48.188;9.964;2022-10-16T03:58:08;95788.28;;;14.70;74.11
29247;BME280;16272;48.188;9.964;2022-10-16T04:00:33;95786.25;;;14.41;75.78
29247;BME280;16272;48.188;9.964;2022-10-16T04:02:59;95783.28;;;14.90;73.90
29247;BME280;16272;48.188;9.964;2022-10-16T04:05:25;95787.31;;;15.09;72.97
29247;BME280;16272;48.188;9.964;2022-10-16T04:07:50;95790.28;;;14.68;73.89
29247;BME280;16272;48.188;9.964;2022-10-16T04:10:16;95802.72;;;14.52;74.83
29247;BME280;16272;48.188;9.964;2022-10-16T04:12:42;95802.94;;;14.43;77.73
29247;BME280;16272;48.188;9.964;2022-10-16T04:15:08;95799.84;;;14.62;74.74
29247;BME280;16272;48.188;9.964;2022-10-16T04:17:33;95804.31;;;14.70;73.49
29247;BME280;16272;48.188;9.964;2022-10-16T04:19:58;95808.16;;;14.36;76.23
29247;BME280;16272;48.188;9.964;2022-10-16T04:22:24;95812.44;;;14.45;75.86
29247;BME280;16272;48.188;9.964;2022-10-16T04:24:49;95806.22;;;14.22;76.73
29247;BME280;16272;48.188;9.964;2022-10-16T04:27:16;95804.34;;;14.30;76.76
29247;BME280;16272;48.188;9.964;2022-10-16T04:29:41;95802.88;;;14.51;74.30
29247;BME280;16272;48.188;9.964;2022-10-16T04:32:08;95812.81;;;14.74;72.86
29247;BME280;16272;48.188;9.964;2022-10-16T04:34:44;95810.59;;;14.14;74.79
29247;BME280;16272;48.188;9.964;2022-10-16T04:37:09;95817.81;;;13.33;77.26
29247;BME280;16272;48.188;9.964;2022-10-16T04:39:34;95834.28;;;13.53;78.18
29247;BME280;16272;48.188;9.964;2022-10-16T04:42:08;95830.31;;;14.45;74.85
29247;BME280;16272;48.188;9.964;2022-10-16T04:44:33;95829.38;;;14.69;74.23
29247;BME280;16272;48.188;9.964;2022-10-16T04:46:58;95831.53;;;14.34;74.52
29247;BME280;16272;48.188;9.964;2022-10-16T04:49:24;95850.19;;;14.42;75.41
29247;BME280;16272;48.188;9.964;2022-10-16T04:51:49;95851.09;;;14.26;76.58
29247;BME280;16272;48.188;9.964;2022-10-16T04:54:15;95842.72;;;14.69;74.30
29247;BME280;16272;48.188;9.964;2022-10-16T04:56:40;95846.69;;;14.02;77.32
29247;BME280;16272;48.188;9.964;2022-10-16T04:59:13;95827.53;;;14.38;75.33
29247;BME280;16272;48.188;9.964;2022-10-16T05:01:41;95829.09;;;14.56;74.83
29247;BME280;16272;48.188;9.964;2022-10-16T05:04:07;95832.81;;;14.15;74.75
29247;BME280;16272;48.188;9.964;2022-10-16T05:06:33;95835.28;;;13.52;78.36
29247;BME280;16272;48.188;9.964;2022-10-16T05:08:58;95835.53;;;13.90;76.33
29247;BME280;16272;48.188;9.964;2022-10-16T05:11:24;95836.78;;;13.55;76.34
29247;BME280;16272;48.188;9.964;2022-10-16T05:13:49;95841.97;;;13.15;78.26
29247;BME280;16272;48.188;9.964;2022-10-16T05:16:14;95830.81;;;13.28;78.55
29247;BME280;16272;48.188;9.964;2022-10-16T05:18:40;95830.78;;;13.61;77.18
29247;BME280;16272;48.188;9.964;2022-10-16T05:21:05;95831.47;;;13.55;76.46
29247;BME280;16272;48.188;9.964;2022-10-16T05:23:31;95829.44;;;13.24;79.33
29247;BME280;16272;48.188;9.964;2022-10-16T05:25:57;95826.75;;;12.75;82.71
29247;BME280;16272;48.188;9.964;2022-10-16T05:28:24;95826.91;;;12.65;83.82
29247;BME280;16272;48.188;9.964;2022-10-16T05:30:50;95829.44;;;12.75;82.92
29247;BME280;16272;48.188;9.964;2022-10-16T05:33:15;95825.78;;;12.84;81.26
29247;BME280;16272;48.188;9.964;2022-10-16T05:35:41;95829.94;;;13.11;80.70
29247;BME280;16272;48.188;9.964;2022-10-16T05:38:06;95838.47;;;13.39;79.54
29247;BME280;16272;48.188;9.964;2022-10-16T05:40:32;95837.44;;;13.65;77.78
29247;BME280;16272;48.188;9.964;2022-10-16T05:42:57;95838.72;;;13.94;76.30
29247;BME280;16272;48.188;9.964;2022-10-16T05:45:22;95848.63;;;13.44;78.57
29247;BME280;16272;48.188;9.964;2022-10-16T05:47:48;95854.81;;;13.53;79.76
29247;BME280;16272;48.188;9.964;2022-10-16T05:50:13;95850.66;;;14.14;75.82
29247;BME280;16272;48.188;9.964;2022-10-16T05:52:38;95848.13;;;14.61;73.32
29247;BME280;16272;48.188;9.964;2022-10-16T05:55:04;95850.13;;;14.59;73.20
29247;BME280;16272;48.188;9.964;2022-10-16T05:57:31;95857.28;;;14.27;75.07
29247;BME280;16272;48.188;9.964;2022-10-16T05:59:56;95852.09;;;14.33;74.41
29247;BME280;16272;48.188;9.964;2022-10-16T06:02:22;95852.41;;;13.91;76.57
29247;BME280;16272;48.188;9.964;2022-10-16T06:04:47;95854.88;;;14.01;76.64
29247;BME280;16272;48.188;9.964;2022-10-16T06:07:12;95847.34;;;14.04;75.21
29247;BME280;16272;48.188;9.964;2022-10-16T06:09:39;95857.75;;;13.91;76.20
29247;BME280;16272;48.188;9.964;2022-10-16T06:12:04;95851.59;;;14.30;74.78
29247;BME280;16272;48.188;9.964;2022-10-16T06:14:30;95858.59;;;14.70;73.23
29247;BME280;16272;48.188;9.964;2022-10-16T06:16:55;95863.91;;;15.02;72.18
29247;BME280;16272;48.188;9.964;2022-10-16T06:19:20;95869.44;;;13.82;76.20
29247;BME280;16272;48.188;9.964;2022-10-16T06:21:46;95874.78;;;13.24;81.06
29247;BME280;16272;48.188;9.964;2022-10-16T06:24:11;95874.91;;;14.44;75.97
29247;BME280;16272;48.188;9.964;2022-10-16T06:26:37;95873.59;;;14.40;75.66
29247;BME280;16272;48.188;9.964;2022-10-16T06:29:03;95875.25;;;14.41;75.61
29247;BME280;16272;48.188;9.964;2022-10-16T06:31:29;95886.00;;;14.25;76.26
29247;BME280;16272;48.188;9.964;2022-10-16T06:33:56;95884.22;;;14.09;77.04
29247;BME280;16272;48.188;9.964;2022-10-16T06:36:22;95886.78;;;13.86;79.09
29247;BME280;16272;48.188;9.964;2022-10-16T06:38:47;95889.34;;;14.27;77.34
29247;BME280;16272;48.188;9.964;2022-10-16T06:41:15;95880.63;;;14.81;75.04
29247;BME280;16272;48.188;9.964;2022-10-16T06:43:42;95884.88;;;14.59;75.31
29247;BME280;16272;48.188;9.964;2022-10-16T06:46:11;95892.25;;;14.09;77.60
29247;BME280;16272;48.188;9.964;2022-10-16T06:48:37;95898.41;;;14.09;78.61
29247;BME280;16272;48.188;9.964;2022-10-16T06:51:09;95900.91;;;15.21;74.71
29247;BME280;16272;48.188;9.964;2022-10-16T06:53:39;95900.84;;;15.76;71.99
29247;BME280;16272;48.188;9.964;2022-10-16T06:56:14;95901.69;;;15.30;73.97
29247;BME280;16272;48.188;9.964;2022-10-16T06:58:40;95910.09;;;14.96;75.25
29247;BME280;16272;48.188;9.964;2022-10-16T07:01:07;95914.91;;;14.69;77.24
29247;BME280;16272;48.188;9.964;2022-10-16T07:03:32;95923.88;;;14.84;77.49
29247;BME280;16272;48.188;9.964;2022-10-16T07:06:02;95922.56;;;15.35;75.14
29247;BME280;16272;48.188;9.964;2022-10-16T07:08:34;95925.69;;;15.85;73.56
29247;BME280;16272;48.188;9.964;2022-10-16T07:11:04;95928.66;;;15.90;72.23
29247;BME280;16272;48.188;9.964;2022-10-16T07:13:33;95926.06;;;15.82;72.83
29247;BME280;16272;48.188;9.964;2022-10-16T07:16:08;95932.13;;;16.28;72.32
29247;BME280;16272;48.188;9.964;2022-10-16T07:18:35;95941.00;;;16.44;71.15
29247;BME280;16272;48.188;9.964;2022-10-16T07:21:08;95937.34;;;17.11;69.17
29247;BME280;16272;48.188;9.964;2022-10-16T07:23:34;95937.41;;;17.18;68.33
29247;BME280;16272;48.188;9.964;2022-10-16T07:25:59;95940.25;;;17.31;68.32
29247;BME280;16272;48.188;9.964;2022-10-16T07:28:25;95959.66;;;16.82;69.53
29247;BME280;16272;48.188;9.964;2022-10-16T07:30:51;95957.19;;;16.50;70.39
29247;BME280;16272;48.188;9.964;2022-10-16T07:33:17;95949.44;;;18.08;66.91
29247;BME280;16272;48.188;9.964;2022-10-16T07:35:53;95936.50;;;18.47;65.21
29247;BME280;16272;48.188;9.964;2022-10-16T07:38:19;95943.44;;;18.69;64.39
29247;BME280;16272;48.188;9.964;2022-10-16T07:40:45;95937.56;;;18.59;65.00
29247;BME280;16272;48.188;9.964;2022-10-16T07:43:10;95933.84;;;18.18;65.99
29247;BME280;16272;48.188;9.964;2022-10-16T07:45:36;95937.63;;;18.72;64.62
29247;BME280;16272;48.188;9.964;2022-10-16T07:48:02;95954.56;;;18.95;65.21
29247;BME280;16272;48.188;9.964;2022-10-16T07:50:27;95953.84;;;19.21;65.22
29247;BME280;16272;48.188;9.964;2022-10-16T07:52:52;95945.53;;;19.16;64.71
29247;BME280;16272;48.188;9.964;2022-10-16T07:55:18;95947.16;;;19.10;65.56
29247;BME280;16272;48.188;9.964;2022-10-16T07:57:43;95955.53;;;19.28;64.64
29247;BME280;16272;48.188;9.964;2022-10-16T08:00:09;95963.94;;;19.05;64.25
29247;BME280;16272;48.188;9.964;2022-10-16T08:02:39;95959.03;;;19.29;64.23
29247;BME280;16272;48.188;9.964;2022-10-16T08:05:05;95968.81;;;19.43;63.40
29247;BME280;16272;48.188;9.964;2022-10-16T08:07:31;95974.66;;;19.60;63.88
29247;BME280;16272;48.188;9.964;2022-10-16T08:09:56;95970.97;;;19.75;61.78
29247;BME280;16272;48.188;9.964;2022-10-16T08:12:23;95980.81;;;19.41;63.89
29247;BME280;16272;48.188;9.964;2022-10-16T08:14:48;95983.19;;;19.09;64.29
29247;BME280;16272;48.188;9.964;2022-10-16T08:17:15;95980.69;;;19.01;65.36
29247;BME280;16272;48.188;9.964;2022-10-16T08:19:44;95975.81;;;19.31;64.42
29247;BME280;16272;48.188;9.964;2022-10-16T08:22:10;95978.72;;;19.29;64.49
29247;BME280;16272;48.188;9.964;2022-10-16T08:24:35;95983.19;;;19.02;64.53
29247;BME280;16272;48.188;9.964;2022-10-16T08:27:02;95984.13;;;19.36;63.83
29247;BME280;16272;48.188;9.964;2022-10-16T08:29:27;95986.16;;;19.27;65.33
29247;BME280;16272;48.188;9.964;2022-10-16T08:31:53;95993.69;;;19.52;63.53
29247;BME280;16272;48.188;9.964;2022-10-16T08:34:18;96004.84;;;19.42;64.77
29247;BME280;16272;48.188;9.964;2022-10-16T08:36:44;95997.50;;;19.16;64.39
29247;BME280;16272;48.188;9.964;2022-10-16T08:39:09;96006.50;;;19.37;63.72
29247;BME280;16272;48.188;9.964;2022-10-16T08:44:21;96012.59;;;19.04;64.69
29247;BME280;16272;48.188;9.964;2022-10-16T08:47:08;96016.91;;;19.53;64.50
29247;BME280;16272;48.188;9.964;2022-10-16T08:49:40;96019.84;;;19.65;63.39
29247;BME280;16272;48.188;9.964;2022-10-16T08:52:12;96022.44;;;20.00;63.20
29247;BME280;16272;48.188;9.964;2022-10-16T08:54:42;96030.34;;;20.42;62.07
29247;BME280;16272;48.188;9.964;2022-10-16T08:57:13;96033.47;;;20.45;61.79
29247;BME280;16272;48.188;9.964;2022-10-16T08:59:39;96035.09;;;20.13;62.84
29247;BME280;16272;48.188;9.964;2022-10-16T09:07:40;96043.63;;;20.77;62.17
29247;BME280;16272;48.188;9.964;2022-10-16T09:18:34;96047.78;;;20.72;60.16
29247;BME280;16272;48.188;9.964;2022-10-16T09:21:25;96042.31;;;21.13;59.14
29247;BME280;16272;48.188;9.964;2022-10-16T09:23:54;96043.09;;;21.26;61.56
29247;BME280;16272;48.188;9.964;2022-10-16T09:26:22;96053.13;;;21.13;60.84
29247;BME280;16272;48.188;9.964;2022-10-16T09:28:47;96043.06;;;21.33;60.56
29247;BME280;16272;48.188;9.964;2022-10-16T09:31:18;96036.66;;;21.79;60.11
29247;BME280;16272;48.188;9.964;2022-10-16T09:33:45;96045.13;;;21.90;58.82
29247;BME280;16272;48.188;9.964;2022-10-16T09:36:12;96042.16;;;21.98;60.14
29247;BME280;16272;48.188;9.964;2022-10-16T09:38:38;96039.38;;;22.11;59.85
29247;BME280;16272;48.188;9.964;2022-10-16T09:41:15;96041.31;;;22.36;59.56
29247;BME280;16272;48.188;9.964;2022-10-16T09:43:48;96054.34;;;22.14;60.25
29247;BME280;16272;48.188;9.964;2022-10-16T09:46:31;96044.59;;;22.88;57.12
29247;BME280;16272;48.188;9.964;2022-10-16T09:48:59;96041.28;;;22.68;58.11
29247;BME280;16272;48.188;9.964;2022-10-16T09:51:34;96041.56;;;22.60;57.91
29247;BME280;16272;48.188;9.964;2022-10-16T09:56:35;96049.25;;;22.81;58.98
29247;BME280;16272;48.188;9.964;2022-10-16T09:59:14;96048.72;;;23.16;56.71
29247;BME280;16272;48.188;9.964;2022-10-16T10:01:42;96042.53;;;23.46;57.41
29247;BME280;16272;48.188;9.964;2022-10-16T10:04:09;96050.66;;;23.64;57.39
29247;BME280;16272;48.188;9.964;2022-10-16T10:06:40;96052.28;;;24.02;55.84
29247;BME280;16272;48.188;9.964;2022-10-16T10:09:14;96050.38;;;23.73;55.11
29247;BME280;16272;48.188;9.964;2022-10-16T10:11:53;96056.00;;;23.90;57.01
29247;BME280;16272;48.188;9.964;2022-10-16T10:14:35;96057.47;;;23.37;57.62
29247;BME280;16272;48.188;9.964;2022-10-16T10:19:29;96051.72;;;23.08;59.09
29247;BME280;16272;48.188;9.964;2022-10-16T10:21:55;96048.28;;;23.38;57.65
29247;BME280;16272;48.188;9.964;2022-10-16T10:24:20;96044.63;;;23.62;59.30
29247;BME280;16272;48.188;9.964;2022-10-16T10:27:04;96048.78;;;23.83;57.30
29247;BME280;16272;48.188;9.964;2022-10-16T10:35:53;96047.84;;;24.20;55.82
29247;BME280;16272;48.188;9.964;2022-10-16T10:41:04;96047.03;;;24.31;53.59
29247;BME280;16272;48.188;9.964;2022-10-16T10:46:32;96049.59;;;25.51;51.19
29247;BME280;16272;48.188;9.964;2022-10-16T10:49:27;96045.53;;;25.65;50.34
29247;BME280;16272;48.188;9.964;2022-10-16T11:03:46;96026.00;;;25.68;48.06
29247;BME280;16272;48.188;9.964;2022-10-16T11:06:29;96031.78;;;25.43;48.48
29247;BME280;16272;48.188;9.964;2022-10-16T11:11:56;96019.94;;;25.26;48.58
29247;BME280;16272;48.188;9.964;2022-10-16T11:14:29;96026.56;;;25.30;48.72
29247;BME280;16272;48.188;9.964;2022-10-16T11:17:08;96019.03;;;25.32;49.10
29247;BME280;16272;48.188;9.964;2022-10-16T11:19:49;96018.75;;;25.45;48.87
29247;BME280;16272;48.188;9.964;2022-10-16T11:22:22;96016.34;;;25.61;49.27
29247;BME280;16272;48.188;9.964;2022-10-16T11:27:54;96015.03;;;25.63;48.67
29247;BME280;16272;48.188;9.964;2022-10-16T11:30:25;96010.38;;;25.11;49.90
29247;BME280;16272;48.188;9.964;2022-10-16T11:36:00;96016.22;;;24.91;50.57
29247;BME280;16272;48.188;9.964;2022-10-16T11:38:38;96010.19;;;25.01;50.87
29247;BME280;16272;48.188;9.964;2022-10-16T11:41:18;95994.91;;;25.24;51.60
29247;BME280;16272;48.188;9.964;2022-10-16T11:44:04;95999.75;;;25.10;49.69
29247;BME280;16272;48.188;9.964;2022-10-16T11:46:34;96005.78;;;25.00;47.92
29247;BME280;16272;48.188;9.964;2022-10-16T11:49:15;96005.53;;;25.13;48.77
29247;BME280;16272;48.188;9.964;2022-10-16T11:51:48;96001.31;;;24.94;48.80
29247;BME280;16272;48.188;9.964;2022-10-16T11:54:57;96000.97;;;24.90;49.56
29247;BME280;16272;48.188;9.964;2022-10-16T11:57:27;96003.22;;;24.82;49.55
29247;BME280;16272;48.188;9.964;2022-10-16T12:00:06;96003.44;;;25.16;50.41
29247;BME280;16272;48.188;9.964;2022-10-16T12:02:48;95995.66;;;24.84;48.42
29247;BME280;16272;48.188;9.964;2022-10-16T12:07:54;95984.00;;;26.05;45.65
29247;BME280;16272;48.188;9.964;2022-10-16T12:10:24;95980.75;;;26.37;46.86
29247;BME280;16272;48.188;9.964;2022-10-16T12:12:51;95975.75;;;26.17;47.19
29247;BME280;16272;48.188;9.964;2022-10-16T12:15:21;95985.75;;;26.11;47.61
29247;BME280;16272;48.188;9.964;2022-10-16T12:17:47;95979.63;;;25.75;45.49
29247;BME280;16272;48.188;9.964;2022-10-16T12:23:06;95977.50;;;26.06;48.49
29247;BME280;16272;48.188;9.964;2022-10-16T12:25:38;95989.44;;;25.76;46.18
29247;BME280;16272;48.188;9.964;2022-10-16T12:28:28;95984.69;;;26.12;46.38
29247;BME280;16272;48.188;9.964;2022-10-16T12:31:05;95986.44;;;26.35;44.09
29247;BME280;16272;48.188;9.964;2022-10-16T12:33:36;95980.38;;;26.16;46.16
29247;BME280;16272;48.188;9.964;2022-10-16T12:36:07;95981.88;;;26.24;48.27
29247;BME280;16272;48.188;9.964;2022-10-16T12:38:48;95971.31;;;26.62;44.40
29247;BME280;16272;48.188;9.964;2022-10-16T12:41:28;95977.25;;;26.58;47.11
29247;BME280;16272;48.188;9.964;2022-10-16T12:43:56;95975.63;;;26.40;44.30
29247;BME280;16272;48.188;9.964;2022-10-16T12:51:42;95980.53;;;26.27;45.59
29247;BME280;16272;48.188;9.964;2022-10-16T12:54:16;95986.50;;;26.57;42.24
29247;BME280;16272;48.188;9.964;2022-10-16T13:05:42;95989.91;;;27.43;38.83
29247;BME280;16272;48.188;9.964;2022-10-16T13:11:16;95993.25;;;26.89;39.87
29247;BME280;16272;48.188;9.964;2022-10-16T13:17:11;95995.16;;;26.20;42.20
29247;BME280;16272;48.188;9.964;2022-10-16T13:20:09;95995.66;;;26.85;41.28
29247;BME280;16272;48.188;9.964;2022-10-16T13:28:12;95996.47;;;26.86;40.19
29247;BME280;16272;48.188;9.964;2022-10-16T13:30:52;95990.50;;;26.67;40.61
29247;BME280;16272;48.188;9.964;2022-10-16T13:33:20;95993.28;;;26.72;41.05
29247;BME280;16272;48.188;9.964;2022-10-16T13:35:54;95992.78;;;26.75;42.04
29247;BME280;16272;48.188;9.964;2022-10-16T13:38:25;95989.78;;;26.93;38.26
29247;BME280;16272;48.188;9.964;2022-10-16T13:43:27;95996.16;;;27.21;41.10
29247;BME280;16272;48.188;9.964;2022-10-16T13:48:39;95990.78;;;26.87;45.65
29247;BME280;16272;48.188;9.964;2022-10-16T13:51:21;95998.03;;;26.99;39.15
29247;BME280;16272;48.188;9.964;2022-10-16T13:53:47;95998.38;;;26.85;46.09
29247;BME280;16272;48.188;9.964;2022-10-16T13:56:20;95993.59;;;26.75;46.45
29247;BME280;16272;48.188;9.964;2022-10-16T13:59:06;95997.81;;;26.83;42.28
29247;BME280;16272;48.188;9.964;2022-10-16T14:01:43;96006.66;;;26.73;45.07
29247;BME280;16272;48.188;9.964;2022-10-16T14:04:11;96009.09;;;26.41;46.14
29247;BME280;16272;48.188;9.964;2022-10-16T14:06:43;96001.19;;;26.56;49.01
29247;BME280;16272;48.188;9.964;2022-10-16T14:12:03;95998.19;;;26.58;46.32
29247;BME280;16272;48.188;9.964;2022-10-16T14:14:47;96001.22;;;26.73;46.13
29247;BME280;16272;48.188;9.964;2022-10-16T14:17:16;95997.16;;;26.76;46.02
29247;BME280;16272;48.188;9.964;2022-10-16T14:19:46;96006.13;;;26.93;46.72
29247;BME280;16272;48.188;9.964;2022-10-16T14:22:40;96002.47;;;27.05;46.44
29247;BME280;16272;48.188;9.964;2022-10-16T14:30:26;96006.25;;;27.21;45.12
29247;BME280;16272;48.188;9.964;2022-10-16T14:33:18;96003.19;;;26.78;43.24
29247;BME280;16272;48.188;9.964;2022-10-16T14:35:45;96013.00;;;26.45;47.77
29247;BME280;16272;48.188;9.964;2022-10-16T14:38:19;96000.78;;;26.48;45.97
29247;BME280;16272;48.188;9.964;2022-10-16T14:40:49;96004.22;;;26.43;46.40
29247;BME280;16272;48.188;9.964;2022-10-16T14:43:25;95996.00;;;26.72;44.71
29247;BME280;16272;48.188;9.964;2022-10-16T14:45:55;95997.16;;;26.76;45.00
29247;BME280;16272;48.188;9.964;2022-10-16T14:48:30;95993.00;;;26.90;43.23
29247;BME280;16272;48.188;9.964;2022-10-16T14:50:56;95998.63;;;26.16;47.00
29247;BME280;16272;48.188;9.964;2022-10-16T14:53:31;95996.91;;;26.44;45.36
29247;BME280;16272;48.188;9.964;2022-10-16T14:55:56;95996.06;;;26.43;48.98
29247;BME280;16272;48.188;9.964;2022-10-16T14:58:22;95995.75;;;26.56;48.47
29247;BME280;16272;48.188;9.964;2022-10-16T15:00:49;96003.41;;;26.59;47.53
29247;BME280;16272;48.188;9.964;2022-10-16T15:03:22;96001.25;;;26.45;45.14
29247;BME280;16272;48.188;9.964;2022-10-16T15:05:48;96001.22;;;25.82;44.52